Time;durP1;ratioP1;P1;durP2;ratioP2;P2;SDS_P1;SDS_P2;PMS_P1;PMS_P2;Temp;Humidity;BMP_temperature;BMP_pressure;BME280_temperature;BME280_humidity;BME280_pressure;Samples;Min_cycle;Max_cycle;Signal;HPM_P1;HPM_P2
2023/05/23 00:00:32;;;;;;;9.88;6.28;;;;;;;;;;5065724;28;20102;-81
2023/05/23 00:02:59;;;;;;;9.48;5.00;;;;;;;;;;5055617;28;20125;-80
2023/05/23 00:05:25;;;;;;;10.50;5.78;;;;;;;;;;5061660;28;20033;-74
2023/05/23 00:07:52;;;;;;;9.98;5.18;;;;;;;;;;5064211;28;20039;-81
2023/05/23 00:10:18;;;;;;;7.65;5.20;;;;;;;;;;5064399;28;20470;-79
2023/05/23 00:12:46;;;;;;;10.10;5.43;;;;;;;;;;5068533;28;20637;-78
2023/05/23 00:15:13;;;;;;;13.70;5.32;;;;;;;;;;5065500;28;20833;-78
2023/05/23 00:17:39;;;;;;;9.48;5.13;;;;;;;;;;5068952;28;20147;-79
2023/05/23 00:20:10;;;;;;;10.38;5.93;;;;;;;;;;5067049;28;20017;-81
2023/05/23 00:22:47;;;;;;;10.55;4.93;;;;;;;;;;5061145;28;20113;-75
2023/05/23 00:25:13;;;;;;;7.30;5.22;;;;;;;;;;5063198;28;20072;-81
2023/05/23 00:27:39;;;;;;;11.20;5.07;;;;;;;;;;5060881;28;20032;-82
2023/05/23 00:30:05;;;;;;;11.40;5.50;;;;;;;;;;5063215;28;20479;-82
2023/05/23 00:32:32;;;;;;;9.82;5.57;;;;;;;;;;5060998;28;20451;-81
2023/05/23 00:34:58;;;;;;;7.45;5.53;;;;;;;;;;5068209;28;20020;-82
2023/05/23 00:37:24;;;;;;;11.98;6.15;;;;;;;;;;5062674;28;20616;-81
2023/05/23 00:39:50;;;;;;;12.73;6.07;;;;;;;;;;5069989;28;20025;-81
2023/05/23 00:42:16;;;;;;;6.65;5.35;;;;;;;;;;5065865;28;20043;-79
2023/05/23 00:44:43;;;;;;;13.38;5.80;;;;;;;;;;5070290;28;20043;-78
2023/05/23 00:47:12;;;;;;;7.78;5.43;;;;;;;;;;5064343;28;20099;-81
2023/05/23 00:49:38;;;;;;;13.90;6.63;;;;;;;;;;5071248;28;20515;-81
2023/05/23 00:52:05;;;;;;;7.78;5.88;;;;;;;;;;5069919;28;20025;-78
2023/05/23 00:54:31;;;;;;;9.32;6.10;;;;;;;;;;5068638;28;20116;-79
2023/05/23 00:56:58;;;;;;;8.40;6.30;;;;;;;;;;5071778;28;20169;-74
2023/05/23 00:59:25;;;;;;;18.85;6.60;;;;;;;;;;5070475;28;20053;-78
2023/05/23 01:01:51;;;;;;;9.60;6.53;;;;;;;;;;5068242;28;20089;-76
2023/05/23 01:04:25;;;;;;;9.25;6.20;;;;;;;;;;5064700;28;20120;-74
2023/05/23 01:06:52;;;;;;;9.57;5.55;;;;;;;;;;5067087;28;20282;-74
2023/05/23 01:09:19;;;;;;;10.88;5.90;;;;;;;;;;5075578;28;20594;-74
2023/05/23 01:12:01;;;;;;;8.68;6.05;;;;;;;;;;5069635;28;20472;-80
2023/05/23 01:14:59;;;;;;;7.88;5.32;;;;;;;;;;5068379;28;20597;-77
2023/05/23 01:17:32;;;;;;;11.18;5.35;;;;;;;;;;5040221;28;20044;-74
2023/05/23 01:20:00;;;;;;;7.93;5.15;;;;;;;;;;5066241;28;20050;-73
2023/05/23 01:22:44;;;;;;;8.20;5.60;;;;;;;;;;5059874;28;20025;-75
2023/05/23 01:25:21;;;;;;;10.75;5.57;;;;;;;;;;5062819;28;20124;-74
2023/05/23 01:27:47;;;;;;;8.00;5.55;;;;;;;;;;5066445;28;20107;-75
2023/05/23 01:30:14;;;;;;;9.20;5.38;;;;;;;;;;5067652;28;20131;-73
2023/05/23 01:32:41;;;;;;;9.65;4.85;;;;;;;;;;5061515;28;20265;-77
2023/05/23 01:35:08;;;;;;;11.32;5.85;;;;;;;;;;5069027;28;20723;-76
2023/05/23 01:37:34;;;;;;;11.23;5.65;;;;;;;;;;5066944;28;20025;-77
2023/05/23 01:40:01;;;;;;;8.10;5.93;;;;;;;;;;5067533;28;20020;-82
2023/05/23 01:42:27;;;;;;;9.43;5.85;;;;;;;;;;5061747;28;20032;-73
2023/05/23 01:44:53;;;;;;;8.82;5.97;;;;;;;;;;5068911;28;20040;-74
2023/05/23 01:47:20;;;;;;;8.27;5.28;;;;;;;;;;5065845;28;20116;-74
2023/05/23 01:49:47;;;;;;;9.80;5.45;;;;;;;;;;5062517;28;20697;-74
2023/05/23 01:52:14;;;;;;;9.27;5.13;;;;;;;;;;5064032;28;20021;-75
2023/05/23 01:54:42;;;;;;;7.22;5.22;;;;;;;;;;5069079;28;20024;-74
2023/05/23 01:57:08;;;;;;;9.93;5.47;;;;;;;;;;5067222;28;20020;-74
2023/05/23 01:59:35;;;;;;;8.35;5.60;;;;;;;;;;5068661;28;20112;-73
2023/05/23 02:02:01;;;;;;;7.32;5.35;;;;;;;;;;5063733;28;20279;-74
2023/05/23 02:04:30;;;;;;;12.32;5.85;;;;;;;;;;5068423;28;20111;-74
2023/05/23 02:06:56;;;;;;;10.23;5.40;;;;;;;;;;5064412;28;20785;-75
2023/05/23 02:09:23;;;;;;;12.60;5.80;;;;;;;;;;5066797;28;20028;-74
2023/05/23 02:11:49;;;;;;;10.82;5.25;;;;;;;;;;5065283;28;20020;-76
2023/05/23 02:14:17;;;;;;;10.80;5.57;;;;;;;;;;5068738;28;20032;-79
2023/05/23 02:16:43;;;;;;;7.68;5.10;;;;;;;;;;5065210;28;20021;-74
2023/05/23 02:19:09;;;;;;;12.02;5.35;;;;;;;;;;5062913;28;20040;-75
2023/05/23 02:21:35;;;;;;;9.38;5.57;;;;;;;;;;5061438;28;20095;-74
2023/05/23 02:24:02;;;;;;;10.85;5.65;;;;;;;;;;5068515;28;20362;-74
2023/05/23 02:26:28;;;;;;;8.90;5.57;;;;;;;;;;5066319;28;20032;-75
2023/05/23 02:28:54;;;;;;;13.25;5.55;;;;;;;;;;5067003;28;20440;-78
2023/05/23 02:31:21;;;;;;;10.32;6.60;;;;;;;;;;5061777;28;20071;-76
2023/05/23 02:33:47;;;;;;;10.73;6.32;;;;;;;;;;5065079;28;20016;-74
2023/05/23 02:36:13;;;;;;;9.45;5.22;;;;;;;;;;5061512;28;20032;-75
2023/05/23 02:38:39;;;;;;;12.60;5.32;;;;;;;;;;5067272;28;20028;-73
2023/05/23 02:41:05;;;;;;;10.52;5.75;;;;;;;;;;5065796;28;20028;-77
2023/05/23 02:43:32;;;;;;;8.25;5.68;;;;;;;;;;5065036;28;20028;-75
2023/05/23 02:45:58;;;;;;;8.68;5.28;;;;;;;;;;5073202;28;20103;-74
2023/05/23 02:48:24;;;;;;;11.93;6.05;;;;;;;;;;5064205;28;20484;-74
2023/05/23 02:50:51;;;;;;;8.15;5.72;;;;;;;;;;5065599;28;20110;-74
2023/05/23 02:53:17;;;;;;;15.15;6.05;;;;;;;;;;5057342;28;20085;-76
2023/05/23 02:55:43;;;;;;;12.25;5.68;;;;;;;;;;5067345;28;20024;-78
2023/05/23 02:58:09;;;;;;;9.40;5.68;;;;;;;;;;5063415;28;20111;-82
2023/05/23 03:00:36;;;;;;;9.82;6.18;;;;;;;;;;5067373;28;20060;-77
2023/05/23 03:03:02;;;;;;;10.27;5.63;;;;;;;;;;5064631;28;20024;-74
2023/05/23 03:05:28;;;;;;;10.15;6.40;;;;;;;;;;5067786;28;20725;-74
2023/05/23 03:07:54;;;;;;;8.68;6.00;;;;;;;;;;5064588;28;20044;-75
2023/05/23 03:10:20;;;;;;;11.10;5.88;;;;;;;;;;5065535;28;20103;-74
2023/05/23 03:12:47;;;;;;;10.43;5.63;;;;;;;;;;5060946;28;20028;-75
2023/05/23 03:15:13;;;;;;;10.77;6.00;;;;;;;;;;5064324;28;20127;-74
2023/05/23 03:17:39;;;;;;;11.02;5.93;;;;;;;;;;5052961;28;20143;-73
2023/05/23 03:20:08;;;;;;;10.82;5.88;;;;;;;;;;5061265;28;20123;-80
2023/05/23 03:22:35;;;;;;;9.57;5.63;;;;;;;;;;5057855;28;20435;-74
2023/05/23 03:25:01;;;;;;;9.90;6.20;;;;;;;;;;5064933;28;20085;-73
2023/05/23 03:27:27;;;;;;;11.38;6.85;;;;;;;;;;5062046;28;20354;-73
2023/05/23 03:29:53;;;;;;;10.07;6.30;;;;;;;;;;5065125;28;20100;-73
2023/05/23 03:32:20;;;;;;;8.77;6.18;;;;;;;;;;5056994;28;20027;-73
2023/05/23 03:34:46;;;;;;;12.85;5.80;;;;;;;;;;5061932;28;20032;-73
2023/05/23 03:37:12;;;;;;;10.70;6.75;;;;;;;;;;5061207;28;20025;-74
2023/05/23 03:39:38;;;;;;;9.85;5.72;;;;;;;;;;5064796;28;20086;-74
2023/05/23 03:42:05;;;;;;;12.80;6.55;;;;;;;;;;5060003;28;20107;-73
2023/05/23 03:44:31;;;;;;;18.58;6.75;;;;;;;;;;5064796;28;20131;-74
2023/05/23 03:46:57;;;;;;;14.25;7.50;;;;;;;;;;5062361;28;20025;-73
2023/05/23 03:49:23;;;;;;;9.27;5.53;;;;;;;;;;5062949;28;20743;-75
2023/05/23 03:51:50;;;;;;;10.43;6.07;;;;;;;;;;5058914;28;20036;-74
2023/05/23 03:54:17;;;;;;;11.45;6.47;;;;;;;;;;5056873;28;20485;-74
2023/05/23 03:56:43;;;;;;;11.93;6.47;;;;;;;;;;5062064;28;20028;-74
2023/05/23 03:59:09;;;;;;;15.38;6.05;;;;;;;;;;5072775;28;20070;-74
2023/05/23 04:01:35;;;;;;;9.75;5.90;;;;;;;;;;5062338;28;20033;-74
2023/05/23 04:04:03;;;;;;;11.10;6.50;;;;;;;;;;5071045;28;20047;-74
2023/05/23 04:06:32;;;;;;;12.07;6.78;;;;;;;;;;5064451;28;20020;-75
2023/05/23 04:08:58;;;;;;;11.02;7.22;;;;;;;;;;5071757;28;20751;-74
2023/05/23 04:11:24;;;;;;;13.95;7.57;;;;;;;;;;5070533;28;20038;-75
2023/05/23 04:13:52;;;;;;;16.25;8.02;;;;;;;;;;5062809;28;20860;-74
2023/05/23 04:16:18;;;;;;;16.88;9.85;;;;;;;;;;5067421;28;20028;-81
2023/05/23 04:18:46;;;;;;;15.80;7.90;;;;;;;;;;5066322;28;20081;-74
2023/05/23 04:21:12;;;;;;;14.05;8.50;;;;;;;;;;5067076;28;20042;-74
2023/05/23 04:23:38;;;;;;;10.50;6.95;;;;;;;;;;5064231;28;20029;-76
2023/05/23 04:26:04;;;;;;;14.40;8.30;;;;;;;;;;5069062;28;20047;-75
2023/05/23 04:28:31;;;;;;;15.43;9.45;;;;;;;;;;5066502;28;20124;-74
2023/05/23 04:30:57;;;;;;;11.05;7.68;;;;;;;;;;5067799;28;20028;-77
2023/05/23 04:33:23;;;;;;;14.88;8.05;;;;;;;;;;5069022;28;20107;-73
2023/05/23 04:35:50;;;;;;;16.17;7.55;;;;;;;;;;5072730;28;20103;-74
2023/05/23 04:38:16;;;;;;;16.73;7.60;;;;;;;;;;5070359;28;20087;-74
2023/05/23 04:40:42;;;;;;;17.48;10.00;;;;;;;;;;5067485;28;20637;-74
2023/05/23 04:43:09;;;;;;;21.27;11.52;;;;;;;;;;5065464;28;20638;-77
2023/05/23 04:45:40;;;;;;;19.95;10.85;;;;;;;;;;5066461;28;20118;-74
2023/05/23 04:48:06;;;;;;;11.88;8.93;;;;;;;;;;5068242;28;20037;-74
2023/05/23 04:50:34;;;;;;;14.55;7.93;;;;;;;;;;5066169;28;20028;-74
2023/05/23 04:53:01;;;;;;;15.00;8.50;;;;;;;;;;5061023;28;20033;-74
2023/05/23 04:55:27;;;;;;;20.83;9.82;;;;;;;;;;5065628;28;20019;-76
2023/05/23 04:57:53;;;;;;;18.45;9.38;;;;;;;;;;5064180;28;20112;-75
2023/05/23 05:00:19;;;;;;;12.00;7.72;;;;;;;;;;5070183;28;20713;-75
2023/05/23 05:02:45;;;;;;;12.88;7.32;;;;;;;;;;5067406;28;20032;-73
2023/05/23 05:05:12;;;;;;;9.75;6.90;;;;;;;;;;5065403;28;20075;-74
2023/05/23 05:07:39;;;;;;;9.50;6.20;;;;;;;;;;5062999;28;20048;-74
2023/05/23 05:10:05;;;;;;;8.27;5.32;;;;;;;;;;5061024;28;20033;-74
2023/05/23 05:12:31;;;;;;;10.18;4.55;;;;;;;;;;5062310;28;20032;-74
2023/05/23 05:14:58;;;;;;;10.25;4.72;;;;;;;;;;5060796;28;20017;-75
2023/05/23 05:17:24;;;;;;;8.57;4.68;;;;;;;;;;5067063;28;20107;-73
2023/05/23 05:19:50;;;;;;;10.65;5.20;;;;;;;;;;5063457;28;20033;-73
2023/05/23 05:22:17;;;;;;;9.70;5.72;;;;;;;;;;5061527;28;20043;-76
2023/05/23 05:24:43;;;;;;;8.73;5.45;;;;;;;;;;5063559;28;20495;-74
2023/05/23 05:27:10;;;;;;;8.13;5.50;;;;;;;;;;5064428;28;20142;-75
2023/05/23 05:29:36;;;;;;;10.63;5.50;;;;;;;;;;5063404;28;20020;-74
2023/05/23 05:32:03;;;;;;;13.45;5.47;;;;;;;;;;5062468;28;20377;-78
2023/05/23 05:34:29;;;;;;;9.35;5.90;;;;;;;;;;5062347;28;20526;-73
2023/05/23 05:36:55;;;;;;;9.68;6.13;;;;;;;;;;5062463;28;20111;-73
2023/05/23 05:39:24;;;;;;;8.23;5.88;;;;;;;;;;5063272;28;20024;-77
2023/05/23 05:41:51;;;;;;;9.50;5.45;;;;;;;;;;5060101;28;20438;-74
2023/05/23 05:44:17;;;;;;;8.38;5.50;;;;;;;;;;5062489;28;20043;-74
2023/05/23 05:46:43;;;;;;;7.97;4.95;;;;;;;;;;5062038;28;20476;-75
2023/05/23 05:49:09;;;;;;;6.97;4.57;;;;;;;;;;5062075;28;20036;-74
2023/05/23 05:51:35;;;;;;;10.73;4.95;;;;;;;;;;5061411;28;20063;-74
2023/05/23 05:54:01;;;;;;;7.75;5.63;;;;;;;;;;5065303;28;20013;-74
2023/05/23 05:56:28;;;;;;;11.52;5.50;;;;;;;;;;5064876;28;20170;-74
2023/05/23 05:58:54;;;;;;;11.63;6.13;;;;;;;;;;5065074;28;20020;-79
2023/05/23 06:01:20;;;;;;;9.38;5.65;;;;;;;;;;5062365;28;20041;-74
2023/05/23 06:03:46;;;;;;;9.02;6.25;;;;;;;;;;5064116;28;20625;-79
2023/05/23 06:06:13;;;;;;;10.30;6.20;;;;;;;;;;5063671;28;20044;-73
2023/05/23 06:08:39;;;;;;;12.05;6.20;;;;;;;;;;5067945;28;20048;-73
2023/05/23 06:11:05;;;;;;;10.27;6.05;;;;;;;;;;5061290;28;20044;-74
2023/05/23 06:13:32;;;;;;;10.73;6.07;;;;;;;;;;5064860;28;20035;-74
2023/05/23 06:15:58;;;;;;;10.65;6.40;;;;;;;;;;5068271;28;20035;-75
2023/05/23 06:18:24;;;;;;;12.50;7.03;;;;;;;;;;5058311;28;20045;-74
2023/05/23 06:20:50;;;;;;;10.70;7.15;;;;;;;;;;5062176;28;20552;-75
2023/05/23 06:23:16;;;;;;;20.45;14.73;;;;;;;;;;5061156;28;20035;-73
2023/05/23 06:25:43;;;;;;;9.23;6.45;;;;;;;;;;5064701;28;20953;-73
2023/05/23 06:28:09;;;;;;;13.27;6.35;;;;;;;;;;5059730;28;20120;-73
2023/05/23 06:30:37;;;;;;;9.82;5.63;;;;;;;;;;5059611;28;20027;-74
2023/05/23 06:33:03;;;;;;;10.35;5.57;;;;;;;;;;5061057;28;20036;-74
2023/05/23 06:35:29;;;;;;;10.77;5.82;;;;;;;;;;5066018;28;20503;-73
2023/05/23 06:37:55;;;;;;;11.93;6.15;;;;;;;;;;5061416;28;20115;-73
2023/05/23 06:40:22;;;;;;;10.18;6.60;;;;;;;;;;5062213;28;20316;-82
2023/05/23 06:42:48;;;;;;;10.95;5.72;;;;;;;;;;5065574;28;20099;-87
2023/05/23 06:45:15;;;;;;;6.45;5.00;;;;;;;;;;5068016;28;20040;-88
2023/05/23 06:47:44;;;;;;;8.07;5.05;;;;;;;;;;5064211;28;20085;-84
2023/05/23 06:50:10;;;;;;;8.13;4.93;;;;;;;;;;5062909;28;20028;-77
2023/05/23 06:52:37;;;;;;;12.20;5.68;;;;;;;;;;5064637;28;20505;-77
2023/05/23 06:55:03;;;;;;;8.25;5.82;;;;;;;;;;5069059;28;20068;-81
2023/05/23 06:57:29;;;;;;;9.70;5.82;;;;;;;;;;5063105;28;20025;-84
2023/05/23 06:59:55;;;;;;;10.20;5.40;;;;;;;;;;5063480;28;20553;-80
2023/05/23 07:02:22;;;;;;;10.07;5.43;;;;;;;;;;5060077;28;20025;-80
2023/05/23 07:04:48;;;;;;;8.18;4.50;;;;;;;;;;5063774;28;20029;-84
2023/05/23 07:07:15;;;;;;;8.55;5.03;;;;;;;;;;5059087;28;20033;-75
2023/05/23 07:09:41;;;;;;;9.57;5.25;;;;;;;;;;5065582;28;20025;-84
2023/05/23 07:12:07;;;;;;;8.43;4.93;;;;;;;;;;5058578;28;20025;-81
2023/05/23 07:14:34;;;;;;;8.68;4.70;;;;;;;;;;5065818;28;21280;-83
2023/05/23 07:17:00;;;;;;;10.10;5.68;;;;;;;;;;5056594;28;20625;-82
2023/05/23 07:19:26;;;;;;;7.75;4.82;;;;;;;;;;5059912;28;20434;-82
2023/05/23 07:21:53;;;;;;;10.35;5.32;;;;;;;;;;5063350;28;20162;-75
2023/05/23 07:24:19;;;;;;;7.70;5.20;;;;;;;;;;5061508;28;20037;-79
2023/05/23 07:26:46;;;;;;;11.77;5.75;;;;;;;;;;5071144;28;20020;-79
2023/05/23 07:29:12;;;;;;;7.68;4.82;;;;;;;;;;5059859;28;20033;-77
2023/05/23 07:31:38;;;;;;;8.88;4.95;;;;;;;;;;5061229;28;20020;-77
2023/05/23 07:34:04;;;;;;;12.75;6.18;;;;;;;;;;5061444;28;20025;-78
2023/05/23 07:36:32;;;;;;;12.98;6.20;;;;;;;;;;5061247;28;20111;-77
2023/05/23 07:38:59;;;;;;;7.97;4.60;;;;;;;;;;5062878;28;20025;-77
2023/05/23 07:41:26;;;;;;;9.52;5.38;;;;;;;;;;5059123;28;20033;-77
2023/05/23 07:43:52;;;;;;;11.98;5.05;;;;;;;;;;5062620;28;20024;-77
2023/05/23 07:46:18;;;;;;;10.63;6.10;;;;;;;;;;5063887;28;20065;-78
2023/05/23 07:48:45;;;;;;;12.23;6.00;;;;;;;;;;5072172;28;20028;-77
2023/05/23 07:51:11;;;;;;;8.63;4.82;;;;;;;;;;5064238;28;20119;-77
2023/05/23 07:53:38;;;;;;;9.07;4.72;;;;;;;;;;5058872;28;20060;-79
2023/05/23 07:56:05;;;;;;;7.43;4.60;;;;;;;;;;5067036;28;20112;-82
2023/05/23 07:58:32;;;;;;;10.18;4.80;;;;;;;;;;5065635;28;20391;-77
2023/05/23 08:00:58;;;;;;;10.20;6.07;;;;;;;;;;5071507;28;20113;-81
2023/05/23 08:03:24;;;;;;;10.27;5.35;;;;;;;;;;5067177;28;20027;-82
2023/05/23 08:05:51;;;;;;;7.13;4.50;;;;;;;;;;5064425;28;20040;-83
2023/05/23 08:08:17;;;;;;;7.10;5.15;;;;;;;;;;5064922;28;20380;-86
2023/05/23 08:10:44;;;;;;;7.53;4.72;;;;;;;;;;5068482;28;20111;-81
2023/05/23 08:13:10;;;;;;;9.68;5.25;;;;;;;;;;5062151;28;20154;-78
2023/05/23 08:15:36;;;;;;;9.57;5.00;;;;;;;;;;5067706;28;20036;-85
2023/05/23 08:18:03;;;;;;;8.45;5.07;;;;;;;;;;5064540;28;20537;-81
2023/05/23 08:20:30;;;;;;;8.32;4.85;;;;;;;;;;5067040;28;20048;-83
2023/05/23 08:23:00;;;;;;;8.27;5.20;;;;;;;;;;5062141;28;20139;-77
2023/05/23 08:25:30;;;;;;;12.32;6.38;;;;;;;;;;5068460;28;20051;-85
2023/05/23 08:27:57;;;;;;;10.25;5.70;;;;;;;;;;5063841;28;20035;-82
2023/05/23 08:30:24;;;;;;;8.70;5.20;;;;;;;;;;5065136;28;20028;-74
2023/05/23 08:32:54;;;;;;;10.07;5.10;;;;;;;;;;5064422;28;20024;-80
2023/05/23 08:35:21;;;;;;;10.18;5.32;;;;;;;;;;5066453;28;20494;-82
2023/05/23 08:37:48;;;;;;;10.95;5.57;;;;;;;;;;5065989;28;20810;-84
2023/05/23 08:40:21;;;;;;;10.63;5.10;;;;;;;;;;5067272;28;20097;-80
2023/05/23 08:42:48;;;;;;;9.48;5.68;;;;;;;;;;5063301;28;20020;-80
2023/05/23 08:45:15;;;;;;;7.18;5.32;;;;;;;;;;5065251;28;20056;-84
2023/05/23 08:47:43;;;;;;;7.75;5.43;;;;;;;;;;5063741;28;20508;-81
2023/05/23 08:50:18;;;;;;;8.73;4.90;;;;;;;;;;5067364;28;20045;-83
2023/05/23 08:52:54;;;;;;;9.15;5.18;;;;;;;;;;5062243;28;20045;-82
2023/05/23 08:55:21;;;;;;;8.45;5.20;;;;;;;;;;5061861;28;20114;-79
2023/05/23 08:57:47;;;;;;;9.80;5.05;;;;;;;;;;5062795;28;20049;-83
2023/05/23 09:00:15;;;;;;;7.63;5.13;;;;;;;;;;5062796;28;20052;-82
2023/05/23 09:02:44;;;;;;;8.23;4.78;;;;;;;;;;5061053;28;20063;-83
2023/05/23 09:05:11;;;;;;;9.90;6.18;;;;;;;;;;5067696;28;20082;-82
2023/05/23 09:07:38;;;;;;;10.52;6.18;;;;;;;;;;5063134;28;20425;-77
2023/05/23 09:10:06;;;;;;;7.70;5.60;;;;;;;;;;5064799;28;20477;-83
2023/05/23 09:12:32;;;;;;;9.98;6.03;;;;;;;;;;5064204;28;20471;-83
2023/05/23 09:14:58;;;;;;;9.93;6.07;;;;;;;;;;5065556;28;20111;-83
2023/05/23 09:17:25;;;;;;;13.52;5.97;;;;;;;;;;5063719;28;20059;-83
2023/05/23 09:19:51;;;;;;;11.35;5.45;;;;;;;;;;5063506;28;20029;-82
2023/05/23 09:22:24;;;;;;;8.38;5.47;;;;;;;;;;5063434;28;20025;-80
2023/05/23 09:24:52;;;;;;;10.23;5.25;;;;;;;;;;5059856;28;20393;-81
2023/05/23 09:27:18;;;;;;;9.85;5.55;;;;;;;;;;5065223;28;20020;-80
2023/05/23 09:29:46;;;;;;;8.05;4.93;;;;;;;;;;5063439;28;20107;-82
2023/05/23 09:32:13;;;;;;;8.25;5.03;;;;;;;;;;5061746;28;20035;-77
2023/05/23 09:34:55;;;;;;;7.72;5.10;;;;;;;;;;5064797;28;20331;-76
2023/05/23 09:37:23;;;;;;;9.98;4.95;;;;;;;;;;5060892;28;20127;-78
2023/05/23 09:39:50;;;;;;;8.68;4.82;;;;;;;;;;5064577;28;20424;-81
2023/05/23 09:42:21;;;;;;;12.65;5.20;;;;;;;;;;5059191;28;20039;-82
2023/05/23 09:44:47;;;;;;;8.18;4.82;;;;;;;;;;5063581;28;20024;-82
2023/05/23 09:47:13;;;;;;;7.70;4.38;;;;;;;;;;5059105;28;20165;-76
2023/05/23 09:49:40;;;;;;;11.38;5.45;;;;;;;;;;5064429;28;20024;-84
2023/05/23 09:52:06;;;;;;;8.30;4.80;;;;;;;;;;5062284;28;20087;-81
2023/05/23 09:54:32;;;;;;;6.40;5.18;;;;;;;;;;5064428;28;20031;-79
2023/05/23 09:56:59;;;;;;;7.85;4.60;;;;;;;;;;5061058;28;20527;-85
2023/05/23 09:59:28;;;;;;;10.35;5.18;;;;;;;;;;5065229;28;20040;-86
2023/05/23 10:01:56;;;;;;;9.85;5.55;;;;;;;;;;5064041;28;20029;-84
2023/05/23 10:04:22;;;;;;;8.68;4.70;;;;;;;;;;5066535;28;20091;-81
2023/05/23 10:06:58;;;;;;;6.65;4.93;;;;;;;;;;5066340;28;20488;-77
2023/05/23 10:09:26;;;;;;;8.57;5.07;;;;;;;;;;5066950;28;20024;-82
2023/05/23 10:11:59;;;;;;;6.82;4.97;;;;;;;;;;5072861;28;20052;-88
2023/05/23 10:14:28;;;;;;;13.45;5.78;;;;;;;;;;5061842;28;20512;-86
2023/05/23 10:16:58;;;;;;;8.32;5.30;;;;;;;;;;5071614;28;20044;-85
2023/05/23 10:19:26;;;;;;;8.77;4.97;;;;;;;;;;5072086;28;20020;-84
2023/05/23 10:21:58;;;;;;;8.55;4.72;;;;;;;;;;5065254;28;20133;-89
2023/05/23 10:24:25;;;;;;;7.22;4.72;;;;;;;;;;5066023;28;20029;-90
2023/05/23 10:26:54;;;;;;;7.88;4.65;;;;;;;;;;5059740;28;20041;-85
2023/05/23 10:29:24;;;;;;;10.45;5.20;;;;;;;;;;5066739;28;20523;-90
2023/05/23 10:31:51;;;;;;;8.27;4.80;;;;;;;;;;5064358;28;20036;-74
2023/05/23 10:34:24;;;;;;;8.95;4.65;;;;;;;;;;5063847;28;20166;-74
2023/05/23 10:37:03;;;;;;;8.20;4.65;;;;;;;;;;5059433;28;20590;-74
2023/05/23 10:39:43;;;;;;;6.45;4.80;;;;;;;;;;5068385;28;20027;-74
2023/05/23 10:42:29;;;;;;;10.50;4.32;;;;;;;;;;5063248;28;20024;-73
2023/05/23 10:45:14;;;;;;;8.32;4.57;;;;;;;;;;5044129;28;20036;-82
2023/05/23 10:47:40;;;;;;;8.48;4.35;;;;;;;;;;5059800;28;20515;-81
2023/05/23 10:50:06;;;;;;;7.88;4.50;;;;;;;;;;5063454;28;20024;-79
2023/05/23 10:52:39;;;;;;;10.80;4.85;;;;;;;;;;5050975;28;20199;-79
2023/05/23 10:55:13;;;;;;;7.18;4.40;;;;;;;;;;5061722;28;20016;-84
2023/05/23 10:57:42;;;;;;;9.55;5.50;;;;;;;;;;5061504;28;20552;-82
2023/05/23 11:00:17;;;;;;;10.80;5.18;;;;;;;;;;5063282;28;20571;-77
2023/05/23 11:02:55;;;;;;;7.32;4.70;;;;;;;;;;5061126;28;20032;-83
2023/05/23 11:05:23;;;;;;;9.50;4.97;;;;;;;;;;5062412;28;20044;-86
2023/05/23 11:08:16;;;;;;;8.60;4.53;;;;;;;;;;5060808;28;20036;-83
2023/05/23 11:10:58;;;;;;;6.97;4.40;;;;;;;;;;5056483;28;20198;-84
2023/05/23 11:13:24;;;;;;;;;;;;;;;;;;5063929;28;20031;-86
2023/05/23 11:15:51;;;;;;;9.95;5.10;;;;;;;;;;5062859;28;19908;-79
2023/05/23 11:18:26;;;;;;;7.15;4.18;;;;;;;;;;5070693;28;20093;-84
2023/05/23 11:20:53;;;;;;;5.65;4.22;;;;;;;;;;5063960;28;20046;-76
2023/05/23 11:23:20;;;;;;;6.70;4.30;;;;;;;;;;5063529;28;20032;-74
2023/05/23 11:25:51;;;;;;;8.02;4.68;;;;;;;;;;5063246;28;20472;-79
2023/05/23 11:28:17;;;;;;;10.70;4.85;;;;;;;;;;5066675;28;20070;-80
2023/05/23 11:30:44;;;;;;;7.05;4.93;;;;;;;;;;5062409;28;20086;-78
2023/05/23 11:33:13;;;;;;;8.20;4.70;;;;;;;;;;5059959;28;20036;-77
2023/05/23 11:35:40;;;;;;;6.88;4.75;;;;;;;;;;5062693;28;20666;-76
2023/05/23 11:38:07;;;;;;;8.02;4.60;;;;;;;;;;5059922;28;20408;-79
2023/05/23 11:40:39;;;;;;;9.18;4.68;;;;;;;;;;5061366;28;20067;-83
2023/05/23 11:43:07;;;;;;;8.98;5.22;;;;;;;;;;5064163;28;20032;-78
2023/05/23 11:45:34;;;;;;;42.35;6.97;;;;;;;;;;5061691;28;20193;-78
2023/05/23 11:48:13;;;;;;;14.40;5.25;;;;;;;;;;5062691;28;20047;-78
2023/05/23 11:50:45;;;;;;;47.40;9.68;;;;;;;;;;5066903;28;21741;-79
2023/05/23 11:53:12;;;;;;;14.27;5.22;;;;;;;;;;5060166;28;20036;-78
2023/05/23 11:55:47;;;;;;;13.02;5.40;;;;;;;;;;5059409;28;20021;-80
2023/05/23 11:58:14;;;;;;;8.05;5.25;;;;;;;;;;5064736;28;20147;-80
2023/05/23 12:00:44;;;;;;;14.20;6.15;;;;;;;;;;5068274;28;20044;-79
2023/05/23 12:03:10;;;;;;;11.90;4.93;;;;;;;;;;5063651;28;20062;-79
2023/05/23 12:05:37;;;;;;;8.95;5.60;;;;;;;;;;5060245;28;20047;-79
2023/05/23 12:08:05;;;;;;;23.05;6.47;;;;;;;;;;5061982;28;20028;-81
2023/05/23 12:10:31;;;;;;;25.30;6.93;;;;;;;;;;5067580;28;20029;-82
2023/05/23 12:12:57;;;;;;;6.18;5.30;;;;;;;;;;5058085;28;20541;-77
2023/05/23 12:15:27;;;;;;;7.60;5.55;;;;;;;;;;5060679;28;20036;-81
2023/05/23 12:17:53;;;;;;;13.82;6.10;;;;;;;;;;5057229;28;20021;-82
2023/05/23 12:20:20;;;;;;;9.48;6.40;;;;;;;;;;5060316;28;20099;-81
2023/05/23 12:22:46;;;;;;;9.02;5.85;;;;;;;;;;5059081;28;20032;-80
2023/05/23 12:25:12;;;;;;;10.57;6.28;;;;;;;;;;5063537;28;20199;-80
2023/05/23 12:27:40;;;;;;;11.00;6.20;;;;;;;;;;5057365;28;20484;-77
2023/05/23 12:30:16;;;;;;;7.25;6.05;;;;;;;;;;5062244;28;20029;-82
2023/05/23 12:32:43;;;;;;;9.45;6.20;;;;;;;;;;5061962;28;20120;-81
2023/05/23 12:35:11;;;;;;;8.35;5.70;;;;;;;;;;5075755;28;20032;-81
2023/05/23 12:37:47;;;;;;;14.30;6.20;;;;;;;;;;5061550;28;20024;-81
2023/05/23 12:40:14;;;;;;;8.57;5.63;;;;;;;;;;5066615;28;20392;-80
2023/05/23 12:42:59;;;;;;;9.32;6.13;;;;;;;;;;5060306;28;20017;-82
2023/05/23 12:45:35;;;;;;;11.30;7.13;;;;;;;;;;5069710;28;20039;-76
2023/05/23 12:48:04;;;;;;;12.07;6.25;;;;;;;;;;5067653;28;20052;-82
2023/05/23 12:50:31;;;;;;;13.75;6.70;;;;;;;;;;5062387;28;20388;-83
2023/05/23 12:52:57;;;;;;;8.30;6.07;;;;;;;;;;5066095;28;20119;-81
2023/05/23 12:55:23;;;;;;;7.88;6.07;;;;;;;;;;5066756;28;20155;-82
2023/05/23 12:57:50;;;;;;;10.65;6.70;;;;;;;;;;5068163;28;20548;-81
2023/05/23 13:00:16;;;;;;;11.77;7.10;;;;;;;;;;5067900;28;20512;-81
2023/05/23 13:02:42;;;;;;;9.38;6.80;;;;;;;;;;5065559;28;20226;-81
2023/05/23 13:05:09;;;;;;;10.23;6.60;;;;;;;;;;5065464;28;20025;-81
2023/05/23 13:07:36;;;;;;;7.75;6.28;;;;;;;;;;5065186;28;20024;-82
2023/05/23 13:10:03;;;;;;;9.35;5.88;;;;;;;;;;5066472;28;20059;-79
2023/05/23 13:12:30;;;;;;;9.00;6.30;;;;;;;;;;5055033;28;20028;-82
2023/05/23 13:14:57;;;;;;;10.55;6.05;;;;;;;;;;5065587;28;20021;-82
2023/05/23 13:17:23;;;;;;;8.80;5.90;;;;;;;;;;5065211;28;20211;-81
2023/05/23 13:19:50;;;;;;;10.57;6.38;;;;;;;;;;5065523;28;20469;-82
2023/05/23 13:22:16;;;;;;;13.32;6.70;;;;;;;;;;5064595;28;20033;-79
2023/05/23 13:24:42;;;;;;;11.15;7.05;;;;;;;;;;5067497;28;20143;-81
2023/05/23 13:27:09;;;;;;;8.35;6.22;;;;;;;;;;5062969;28;20028;-84
2023/05/23 13:29:35;;;;;;;9.55;6.40;;;;;;;;;;5064654;28;20017;-84
2023/05/23 13:32:01;;;;;;;10.88;6.85;;;;;;;;;;5064573;28;20491;-83
2023/05/23 13:34:27;;;;;;;8.02;5.88;;;;;;;;;;5064956;28;20073;-84
2023/05/23 13:36:54;;;;;;;10.45;5.93;;;;;;;;;;5065222;28;20784;-80
2023/05/23 13:39:21;;;;;;;9.82;6.25;;;;;;;;;;5063716;28;20048;-84
2023/05/23 13:41:48;;;;;;;11.18;6.00;;;;;;;;;;5063744;28;20029;-84
2023/05/23 13:44:14;;;;;;;13.18;6.10;;;;;;;;;;5064915;28;20031;-80
2023/05/23 13:46:41;;;;;;;11.95;5.70;;;;;;;;;;5065203;28;20459;-78
2023/05/23 13:49:07;;;;;;;8.95;5.97;;;;;;;;;;5065966;28;20048;-84
2023/05/23 13:51:35;;;;;;;9.80;5.70;;;;;;;;;;5067817;28;20107;-82
2023/05/23 13:54:01;;;;;;;11.88;6.00;;;;;;;;;;5061992;28;20548;-82
2023/05/23 13:56:27;;;;;;;10.55;6.07;;;;;;;;;;5065143;28;20120;-83
2023/05/23 13:58:54;;;;;;;11.02;6.35;;;;;;;;;;5066460;28;20399;-80
2023/05/23 14:01:20;;;;;;;8.80;5.75;;;;;;;;;;5066052;28;20119;-84
2023/05/23 14:03:46;;;;;;;10.23;5.95;;;;;;;;;;5065879;28;20426;-78
2023/05/23 14:06:12;;;;;;;11.98;5.93;;;;;;;;;;5061420;28;20101;-83
2023/05/23 14:08:38;;;;;;;10.25;6.22;;;;;;;;;;5065990;28;20027;-86
2023/05/23 14:11:04;;;;;;;9.23;5.45;;;;;;;;;;5063941;28;20017;-82
2023/05/23 14:13:31;;;;;;;8.68;6.10;;;;;;;;;;5060178;28;20024;-82
2023/05/23 14:16:06;;;;;;;8.60;5.80;;;;;;;;;;5064669;28;20044;-81
2023/05/23 14:18:33;;;;;;;10.00;6.88;;;;;;;;;;5063819;28;20021;-77
2023/05/23 14:20:59;;;;;;;13.18;5.88;;;;;;;;;;5063883;28;20610;-78
2023/05/23 14:23:25;;;;;;;12.68;6.05;;;;;;;;;;5063865;28;20103;-85
2023/05/23 14:25:51;;;;;;;8.88;5.32;;;;;;;;;;5064948;28;20036;-83
2023/05/23 14:28:17;;;;;;;11.63;6.25;;;;;;;;;;5058698;28;20699;-84
2023/05/23 14:30:44;;;;;;;11.55;5.88;;;;;;;;;;5065108;28;20035;-78
2023/05/23 14:33:11;;;;;;;11.65;6.03;;;;;;;;;;5061891;28;20037;-84
2023/05/23 14:35:38;;;;;;;9.57;6.13;;;;;;;;;;5065281;28;20020;-83
2023/05/23 14:38:04;;;;;;;6.93;5.55;;;;;;;;;;5060173;28;20104;-83